sensor_id;sensor_type;location;lat;lon;timestamp;P1;durP1;ratioP1;P2;durP2;ratioP2
15049;SDS011;7622;42.724;23.250;2022-07-04T00:01:33;4.50;;;4.10;;
15049;SDS011;7622;42.724;23.250;2022-07-04T00:04:00;8.37;;;4.50;;
15049;SDS011;7622;42.724;23.250;2022-07-04T00:06:26;7.03;;;4.40;;
15049;SDS011;7622;42.724;23.250;2022-07-04T00:08:53;4.97;;;4.40;;
15049;SDS011;7622;42.724;23.250;2022-07-04T00:11:20;9.70;;;4.43;;
15049;SDS011;7622;42.724;23.250;2022-07-04T00:13:47;4.77;;;4.47;;
15049;SDS011;7622;42.724;23.250;2022-07-04T00:16:15;4.70;;;4.30;;
15049;SDS011;7622;42.724;23.250;2022-07-04T00:18:42;5.37;;;4.40;;
15049;SDS011;7622;42.724;23.250;2022-07-04T00:21:08;4.57;;;4.13;;
15049;SDS011;7622;42.724;23.250;2022-07-04T00:23:35;4.20;;;3.83;;
15049;SDS011;7622;42.724;23.250;2022-07-04T00:26:02;6.73;;;3.90;;
15049;SDS011;7622;42.724;23.250;2022-07-04T00:28:28;4.80;;;4.00;;
15049;SDS011;7622;42.724;23.250;2022-07-04T00:30:55;4.30;;;4.00;;
15049;SDS011;7622;42.724;23.250;2022-07-04T00:33:23;4.70;;;4.27;;
15049;SDS011;7622;42.724;23.250;2022-07-04T00:35:50;6.33;;;4.10;;
15049;SDS011;7622;42.724;23.250;2022-07-04T00:38:17;6.17;;;3.97;;
15049;SDS011;7622;42.724;23.250;2022-07-04T00:40:44;4.13;;;3.83;;
15049;SDS011;7622;42.724;23.250;2022-07-04T00:43:11;3.70;;;3.40;;
15049;SDS011;7622;42.724;23.250;2022-07-04T00:45:37;6.07;;;3.77;;
15049;SDS011;7622;42.724;23.250;2022-07-04T00:48:04;5.00;;;3.87;;
15049;SDS011;7622;42.724;23.250;2022-07-04T00:50:33;7.93;;;3.80;;
15049;SDS011;7622;42.724;23.250;2022-07-04T00:52:59;4.27;;;3.87;;
15049;SDS011;7622;42.724;23.250;2022-07-04T00:55:27;4.33;;;3.97;;
15049;SDS011;7622;42.724;23.250;2022-07-04T00:57:54;4.53;;;3.50;;
15049;SDS011;7622;42.724;23.250;2022-07-04T01:00:20;3.70;;;3.40;;
15049;SDS011;7622;42.724;23.250;2022-07-04T01:02:47;4.37;;;4.00;;
15049;SDS011;7622;42.724;23.250;2022-07-04T01:05:14;7.57;;;3.77;;
15049;SDS011;7622;42.724;23.250;2022-07-04T01:07:43;5.53;;;3.30;;
15049;SDS011;7622;42.724;23.250;2022-07-04T01:10:10;3.60;;;3.40;;
15049;SDS011;7622;42.724;23.250;2022-07-04T01:12:37;4.50;;;3.70;;
15049;SDS011;7622;42.724;23.250;2022-07-04T01:15:05;8.40;;;3.40;;
15049;SDS011;7622;42.724;23.250;2022-07-04T01:17:32;5.87;;;4.00;;
15049;SDS011;7622;42.724;23.250;2022-07-04T01:20:00;4.20;;;3.83;;
15049;SDS011;7622;42.724;23.250;2022-07-04T01:22:28;4.53;;;3.63;;
15049;SDS011;7622;42.724;23.250;2022-07-04T01:24:54;4.67;;;3.27;;
15049;SDS011;7622;42.724;23.250;2022-07-04T01:27:21;3.90;;;3.60;;
15049;SDS011;7622;42.724;23.250;2022-07-04T01:29:49;5.40;;;3.80;;
15049;SDS011;7622;42.724;23.250;2022-07-04T01:32:16;6.53;;;3.27;;
15049;SDS011;7622;42.724;23.250;2022-07-04T01:34:43;4.73;;;3.73;;
15049;SDS011;7622;42.724;23.250;2022-07-04T01:37:10;3.60;;;3.40;;
15049;SDS011;7622;42.724;23.250;2022-07-04T01:39:38;3.87;;;3.50;;
15049;SDS011;7622;42.724;23.250;2022-07-04T01:42:05;4.17;;;3.50;;
15049;SDS011;7622;42.724;23.250;2022-07-04T01:44:32;4.57;;;3.97;;
15049;SDS011;7622;42.724;23.250;2022-07-04T01:47:00;4.47;;;3.80;;
15049;SDS011;7622;42.724;23.250;2022-07-04T01:49:27;4.10;;;3.80;;
15049;SDS011;7622;42.724;23.250;2022-07-04T01:51:54;6.87;;;6.27;;
15049;SDS011;7622;42.724;23.250;2022-07-04T01:54:20;9.93;;;7.37;;
15049;SDS011;7622;42.724;23.250;2022-07-04T01:56:51;8.90;;;7.80;;
15049;SDS011;7622;42.724;23.250;2022-07-04T01:59:18;8.50;;;7.80;;
15049;SDS011;7622;42.724;23.250;2022-07-04T02:02:05;8.63;;;7.73;;
15049;SDS011;7622;42.724;23.250;2022-07-04T02:04:30;9.10;;;7.90;;
15049;SDS011;7622;42.724;23.250;2022-07-04T02:06:59;8.53;;;7.77;;
15049;SDS011;7622;42.724;23.250;2022-07-04T02:09:26;8.60;;;8.00;;
15049;SDS011;7622;42.724;23.250;2022-07-04T02:11:54;8.77;;;7.97;;
15049;SDS011;7622;42.724;23.250;2022-07-04T02:14:38;8.97;;;8.07;;
15049;SDS011;7622;42.724;23.250;2022-07-04T02:17:06;8.87;;;8.17;;
15049;SDS011;7622;42.724;23.250;2022-07-04T02:19:33;9.37;;;8.60;;
15049;SDS011;7622;42.724;23.250;2022-07-04T02:22:00;9.33;;;8.53;;
15049;SDS011;7622;42.724;23.250;2022-07-04T02:24:27;9.67;;;8.77;;
15049;SDS011;7622;42.724;23.250;2022-07-04T02:26:56;8.90;;;8.07;;
15049;SDS011;7622;42.724;23.250;2022-07-04T02:29:22;10.53;;;7.43;;
15049;SDS011;7622;42.724;23.250;2022-07-04T02:31:49;9.57;;;8.57;;
15049;SDS011;7622;42.724;23.250;2022-07-04T02:34:16;8.97;;;8.10;;
15049;SDS011;7622;42.724;23.250;2022-07-04T02:36:43;10.30;;;8.17;;
15049;SDS011;7622;42.724;23.250;2022-07-04T02:39:09;9.13;;;8.40;;
15049;SDS011;7622;42.724;23.250;2022-07-04T02:41:36;7.77;;;7.17;;
15049;SDS011;7622;42.724;23.250;2022-07-04T02:44:04;9.27;;;8.20;;
15049;SDS011;7622;42.724;23.250;2022-07-04T02:46:31;9.20;;;8.20;;
15049;SDS011;7622;42.724;23.250;2022-07-04T02:48:58;9.97;;;8.00;;
15049;SDS011;7622;42.724;23.250;2022-07-04T02:51:25;8.63;;;8.00;;
15049;SDS011;7622;42.724;23.250;2022-07-04T02:53:52;10.10;;;8.70;;
15049;SDS011;7622;42.724;23.250;2022-07-04T02:56:19;9.47;;;8.57;;
15049;SDS011;7622;42.724;23.250;2022-07-04T02:58:45;10.23;;;8.43;;
15049;SDS011;7622;42.724;23.250;2022-07-04T03:01:14;9.30;;;8.17;;
15049;SDS011;7622;42.724;23.250;2022-07-04T03:03:41;8.87;;;7.93;;
15049;SDS011;7622;42.724;23.250;2022-07-04T03:06:08;9.60;;;7.87;;
15049;SDS011;7622;42.724;23.250;2022-07-04T03:08:35;11.07;;;8.27;;
15049;SDS011;7622;42.724;23.250;2022-07-04T03:11:03;8.50;;;7.50;;
15049;SDS011;7622;42.724;23.250;2022-07-04T03:13:30;8.17;;;7.47;;
15049;SDS011;7622;42.724;23.250;2022-07-04T03:15:57;8.60;;;7.90;;
15049;SDS011;7622;42.724;23.250;2022-07-04T03:18:25;8.30;;;7.50;;
15049;SDS011;7622;42.724;23.250;2022-07-04T03:20:52;10.43;;;8.00;;
15049;SDS011;7622;42.724;23.250;2022-07-04T03:23:19;8.27;;;7.57;;
15049;SDS011;7622;42.724;23.250;2022-07-04T03:25:45;9.90;;;8.00;;
15049;SDS011;7622;42.724;23.250;2022-07-04T03:28:12;8.67;;;7.97;;
15049;SDS011;7622;42.724;23.250;2022-07-04T03:30:39;9.53;;;7.27;;
15049;SDS011;7622;42.724;23.250;2022-07-04T03:33:06;7.90;;;7.20;;
15049;SDS011;7622;42.724;23.250;2022-07-04T03:35:34;8.07;;;7.30;;
15049;SDS011;7622;42.724;23.250;2022-07-04T03:38:01;7.23;;;6.73;;
15049;SDS011;7622;42.724;23.250;2022-07-04T03:40:27;7.60;;;6.97;;
15049;SDS011;7622;42.724;23.250;2022-07-04T03:42:56;7.50;;;6.73;;
15049;SDS011;7622;42.724;23.250;2022-07-04T03:45:23;7.57;;;6.77;;
15049;SDS011;7622;42.724;23.250;2022-07-04T03:47:50;9.50;;;6.97;;
15049;SDS011;7622;42.724;23.250;2022-07-04T03:50:17;7.67;;;5.93;;
15049;SDS011;7622;42.724;23.250;2022-07-04T03:52:45;18.87;;;6.60;;
15049;SDS011;7622;42.724;23.250;2022-07-04T03:55:12;11.60;;;7.03;;
15049;SDS011;7622;42.724;23.250;2022-07-04T03:57:39;8.90;;;6.60;;
15049;SDS011;7622;42.724;23.250;2022-07-04T04:00:06;6.70;;;6.07;;
15049;SDS011;7622;42.724;23.250;2022-07-04T04:02:35;7.00;;;6.37;;
15049;SDS011;7622;42.724;23.250;2022-07-04T04:05:02;9.80;;;6.47;;
15049;SDS011;7622;42.724;23.250;2022-07-04T04:07:48;10.13;;;6.83;;
15049;SDS011;7622;42.724;23.250;2022-07-04T04:10:15;7.00;;;6.30;;
15049;SDS011;7622;42.724;23.250;2022-07-04T04:12:42;6.53;;;6.10;;
15049;SDS011;7622;42.724;23.250;2022-07-04T04:15:09;6.83;;;6.27;;
15049;SDS011;7622;42.724;23.250;2022-07-04T04:17:36;6.57;;;5.97;;
15049;SDS011;7622;42.724;23.250;2022-07-04T04:20:03;6.57;;;5.83;;
15049;SDS011;7622;42.724;23.250;2022-07-04T04:22:30;6.37;;;5.50;;
15049;SDS011;7622;42.724;23.250;2022-07-04T04:24:58;7.67;;;6.40;;
15049;SDS011;7622;42.724;23.250;2022-07-04T04:27:25;7.07;;;6.57;;
15049;SDS011;7622;42.724;23.250;2022-07-04T04:29:52;6.37;;;5.93;;
15049;SDS011;7622;42.724;23.250;2022-07-04T04:32:19;12.67;;;6.23;;
15049;SDS011;7622;42.724;23.250;2022-07-04T04:34:46;9.33;;;6.80;;
15049;SDS011;7622;42.724;23.250;2022-07-04T04:37:13;7.83;;;6.50;;
15049;SDS011;7622;42.724;23.250;2022-07-04T04:39:40;7.53;;;6.60;;
15049;SDS011;7622;42.724;23.250;2022-07-04T04:42:08;17.40;;;6.30;;
15049;SDS011;7622;42.724;23.250;2022-07-04T04:44:35;7.67;;;6.50;;
15049;SDS011;7622;42.724;23.250;2022-07-04T04:47:02;8.87;;;6.10;;
15049;SDS011;7622;42.724;23.250;2022-07-04T04:49:29;14.50;;;7.23;;
15049;SDS011;7622;42.724;23.250;2022-07-04T04:51:56;7.10;;;6.43;;
15049;SDS011;7622;42.724;23.250;2022-07-04T04:54:23;6.50;;;5.90;;
15049;SDS011;7622;42.724;23.250;2022-07-04T04:56:49;9.00;;;6.80;;
15049;SDS011;7622;42.724;23.250;2022-07-04T04:59:17;7.73;;;6.30;;
15049;SDS011;7622;42.724;23.250;2022-07-04T05:01:44;6.57;;;5.97;;
15049;SDS011;7622;42.724;23.250;2022-07-04T05:04:11;6.87;;;6.30;;
15049;SDS011;7622;42.724;23.250;2022-07-04T05:06:39;8.10;;;6.10;;
15049;SDS011;7622;42.724;23.250;2022-07-04T05:09:06;11.13;;;6.13;;
15049;SDS011;7622;42.724;23.250;2022-07-04T05:11:33;12.97;;;6.57;;
15049;SDS011;7622;42.724;23.250;2022-07-04T05:14:00;6.80;;;6.20;;
15049;SDS011;7622;42.724;23.250;2022-07-04T05:16:28;17.13;;;6.80;;
15049;SDS011;7622;42.724;23.250;2022-07-04T05:18:55;11.73;;;6.33;;
15049;SDS011;7622;42.724;23.250;2022-07-04T05:21:22;6.87;;;5.97;;
15049;SDS011;7622;42.724;23.250;2022-07-04T05:23:51;7.23;;;6.53;;
15049;SDS011;7622;42.724;23.250;2022-07-04T05:26:18;9.57;;;6.60;;
15049;SDS011;7622;42.724;23.250;2022-07-04T05:28:45;15.57;;;6.60;;
15049;SDS011;7622;42.724;23.250;2022-07-04T05:31:11;9.27;;;6.33;;
15049;SDS011;7622;42.724;23.250;2022-07-04T05:33:40;8.57;;;6.33;;
15049;SDS011;7622;42.724;23.250;2022-07-04T05:36:07;9.03;;;7.10;;
15049;SDS011;7622;42.724;23.250;2022-07-04T05:38:34;10.33;;;6.30;;
15049;SDS011;7622;42.724;23.250;2022-07-04T05:41:01;8.83;;;6.30;;
15049;SDS011;7622;42.724;23.250;2022-07-04T05:43:28;10.00;;;6.00;;
15049;SDS011;7622;42.724;23.250;2022-07-04T05:45:54;9.87;;;6.30;;
15049;SDS011;7622;42.724;23.250;2022-07-04T05:48:21;6.30;;;5.90;;
15049;SDS011;7622;42.724;23.250;2022-07-04T05:50:49;7.90;;;5.97;;
15049;SDS011;7622;42.724;23.250;2022-07-04T05:53:16;9.03;;;6.10;;
15049;SDS011;7622;42.724;23.250;2022-07-04T05:55:42;6.73;;;6.07;;
15049;SDS011;7622;42.724;23.250;2022-07-04T05:58:09;12.20;;;6.80;;
15049;SDS011;7622;42.724;23.250;2022-07-04T06:00:36;8.77;;;5.53;;
15049;SDS011;7622;42.724;23.250;2022-07-04T06:03:04;7.63;;;5.30;;
15049;SDS011;7622;42.724;23.250;2022-07-04T06:05:31;7.37;;;5.60;;
15049;SDS011;7622;42.724;23.250;2022-07-04T06:08:00;7.17;;;5.90;;
15049;SDS011;7622;42.724;23.250;2022-07-04T06:10:27;6.00;;;5.47;;
15049;SDS011;7622;42.724;23.250;2022-07-04T06:12:54;12.23;;;5.67;;
15049;SDS011;7622;42.724;23.250;2022-07-04T06:15:21;7.10;;;5.50;;
15049;SDS011;7622;42.724;23.250;2022-07-04T06:17:48;9.17;;;5.50;;
15049;SDS011;7622;42.724;23.250;2022-07-04T06:20:15;16.23;;;5.43;;
15049;SDS011;7622;42.724;23.250;2022-07-04T06:22:42;6.73;;;5.87;;
15049;SDS011;7622;42.724;23.250;2022-07-04T06:25:12;8.90;;;5.57;;
15049;SDS011;7622;42.724;23.250;2022-07-04T06:27:39;7.60;;;4.67;;
15049;SDS011;7622;42.724;23.250;2022-07-04T06:30:07;7.20;;;4.68;;
15049;SDS011;7622;42.724;23.250;2022-07-04T06:32:41;5.88;;;3.95;;
15049;SDS011;7622;42.724;23.250;2022-07-04T06:35:12;4.55;;;4.00;;
15049;SDS011;7622;42.724;23.250;2022-07-04T06:37:56;5.72;;;4.43;;
15049;SDS011;7622;42.724;23.250;2022-07-04T06:40:25;11.25;;;4.38;;
15049;SDS011;7622;42.724;23.250;2022-07-04T06:42:51;10.25;;;4.57;;
15049;SDS011;7622;42.724;23.250;2022-07-04T06:45:18;7.55;;;4.63;;
15049;SDS011;7622;42.724;23.250;2022-07-04T06:47:45;12.07;;;4.65;;
15049;SDS011;7622;42.724;23.250;2022-07-04T06:50:12;5.30;;;4.70;;
15049;SDS011;7622;42.724;23.250;2022-07-04T06:52:39;6.00;;;4.18;;
15049;SDS011;7622;42.724;23.250;2022-07-04T06:55:06;9.70;;;4.25;;
15049;SDS011;7622;42.724;23.250;2022-07-04T06:57:35;5.85;;;4.50;;
15049;SDS011;7622;42.724;23.250;2022-07-04T07:00:02;4.72;;;4.32;;
15049;SDS011;7622;42.724;23.250;2022-07-04T07:02:30;8.90;;;4.38;;
15049;SDS011;7622;42.724;23.250;2022-07-04T07:04:59;6.93;;;4.25;;
15049;SDS011;7622;42.724;23.250;2022-07-04T07:07:26;6.70;;;4.25;;
15049;SDS011;7622;42.724;23.250;2022-07-04T07:09:54;11.18;;;4.45;;
15049;SDS011;7622;42.724;23.250;2022-07-04T07:12:21;6.43;;;4.53;;
15049;SDS011;7622;42.724;23.250;2022-07-04T07:14:50;9.75;;;4.80;;
15049;SDS011;7622;42.724;23.250;2022-07-04T07:17:16;6.03;;;4.82;;
15049;SDS011;7622;42.724;23.250;2022-07-04T07:19:43;7.40;;;4.28;;
15049;SDS011;7622;42.724;23.250;2022-07-04T07:22:11;8.88;;;3.90;;
15049;SDS011;7622;42.724;23.250;2022-07-04T07:24:38;4.45;;;3.85;;
15049;SDS011;7622;42.724;23.250;2022-07-04T07:27:05;5.60;;;4.28;;
15049;SDS011;7622;42.724;23.250;2022-07-04T07:29:33;5.03;;;4.15;;
15049;SDS011;7622;42.724;23.250;2022-07-04T07:32:01;7.50;;;4.35;;
15049;SDS011;7622;42.724;23.250;2022-07-04T07:34:28;8.40;;;4.32;;
15049;SDS011;7622;42.724;23.250;2022-07-04T07:36:55;6.75;;;3.60;;
15049;SDS011;7622;42.724;23.250;2022-07-04T07:39:22;3.85;;;3.55;;
15049;SDS011;7622;42.724;23.250;2022-07-04T07:41:49;7.75;;;3.70;;
15049;SDS011;7622;42.724;23.250;2022-07-04T07:44:16;11.45;;;4.40;;
15049;SDS011;7622;42.724;23.250;2022-07-04T07:46:43;14.77;;;4.13;;
15049;SDS011;7622;42.724;23.250;2022-07-04T07:49:11;5.00;;;4.07;;
15049;SDS011;7622;42.724;23.250;2022-07-04T07:51:37;12.70;;;4.10;;
15049;SDS011;7622;42.724;23.250;2022-07-04T07:54:04;9.25;;;3.78;;
15049;SDS011;7622;42.724;23.250;2022-07-04T07:56:31;5.35;;;4.10;;
15049;SDS011;7622;42.724;23.250;2022-07-04T07:58:58;8.68;;;4.28;;
15049;SDS011;7622;42.724;23.250;2022-07-04T08:01:25;8.15;;;3.80;;
15049;SDS011;7622;42.724;23.250;2022-07-04T08:03:51;4.68;;;4.30;;
15049;SDS011;7622;42.724;23.250;2022-07-04T08:06:37;8.73;;;4.82;;
15049;SDS011;7622;42.724;23.250;2022-07-04T08:09:05;9.07;;;4.93;;
15049;SDS011;7622;42.724;23.250;2022-07-04T08:11:32;5.35;;;4.35;;
15049;SDS011;7622;42.724;23.250;2022-07-04T08:13:58;7.47;;;4.13;;
15049;SDS011;7622;42.724;23.250;2022-07-04T08:16:25;14.50;;;4.70;;
15049;SDS011;7622;42.724;23.250;2022-07-04T08:18:52;4.68;;;4.18;;
15049;SDS011;7622;42.724;23.250;2022-07-04T08:21:19;6.43;;;4.63;;
15049;SDS011;7622;42.724;23.250;2022-07-04T08:23:47;5.43;;;4.38;;
15049;SDS011;7622;42.724;23.250;2022-07-04T08:26:13;9.43;;;4.72;;
15049;SDS011;7622;42.724;23.250;2022-07-04T08:28:40;10.07;;;4.40;;
15049;SDS011;7622;42.724;23.250;2022-07-04T08:31:07;6.97;;;4.50;;
15049;SDS011;7622;42.724;23.250;2022-07-04T08:33:34;5.43;;;4.60;;
15049;SDS011;7622;42.724;23.250;2022-07-04T08:36:00;5.13;;;4.68;;
15049;SDS011;7622;42.724;23.250;2022-07-04T08:38:27;5.22;;;4.78;;
15049;SDS011;7622;42.724;23.250;2022-07-04T08:40:56;11.45;;;4.85;;
15049;SDS011;7622;42.724;23.250;2022-07-04T08:43:25;7.15;;;4.90;;
15049;SDS011;7622;42.724;23.250;2022-07-04T08:45:53;6.00;;;4.68;;
15049;SDS011;7622;42.724;23.250;2022-07-04T08:48:23;8.77;;;4.97;;
15049;SDS011;7622;42.724;23.250;2022-07-04T08:50:53;7.78;;;4.60;;
15049;SDS011;7622;42.724;23.250;2022-07-04T08:53:22;8.88;;;4.55;;
15049;SDS011;7622;42.724;23.250;2022-07-04T08:55:56;8.95;;;5.15;;
15049;SDS011;7622;42.724;23.250;2022-07-04T08:58:41;11.35;;;5.03;;
15049;SDS011;7622;42.724;23.250;2022-07-04T09:01:10;8.13;;;5.85;;
15049;SDS011;7622;42.724;23.250;2022-07-04T09:03:40;9.25;;;5.60;;
15049;SDS011;7622;42.724;23.250;2022-07-04T09:06:07;7.35;;;5.60;;
15049;SDS011;7622;42.724;23.250;2022-07-04T09:08:34;12.07;;;6.13;;
15049;SDS011;7622;42.724;23.250;2022-07-04T09:11:02;8.07;;;5.57;;
15049;SDS011;7622;42.724;23.250;2022-07-04T09:13:29;8.90;;;5.85;;
15049;SDS011;7622;42.724;23.250;2022-07-04T09:15:57;9.00;;;5.68;;
15049;SDS011;7622;42.724;23.250;2022-07-04T09:18:24;13.32;;;5.65;;
15049;SDS011;7622;42.724;23.250;2022-07-04T09:20:53;7.00;;;5.63;;
15049;SDS011;7622;42.724;23.250;2022-07-04T09:23:21;8.90;;;5.55;;
15049;SDS011;7622;42.724;23.250;2022-07-04T09:26:05;7.97;;;5.03;;
15049;SDS011;7622;42.724;23.250;2022-07-04T09:28:35;6.30;;;5.25;;
15049;SDS011;7622;42.724;23.250;2022-07-04T09:31:02;7.45;;;4.65;;
15049;SDS011;7622;42.724;23.250;2022-07-04T09:33:43;11.15;;;4.97;;
15049;SDS011;7622;42.724;23.250;2022-07-04T09:36:12;5.05;;;4.75;;
15049;SDS011;7622;42.724;23.250;2022-07-04T09:38:42;9.23;;;4.90;;
15049;SDS011;7622;42.724;23.250;2022-07-04T09:41:12;5.72;;;4.55;;
15049;SDS011;7622;42.724;23.250;2022-07-04T09:43:58;5.05;;;4.65;;
15049;SDS011;7622;42.724;23.250;2022-07-04T09:46:26;7.57;;;4.93;;
15049;SDS011;7622;42.724;23.250;2022-07-04T09:48:53;5.53;;;5.03;;
15049;SDS011;7622;42.724;23.250;2022-07-04T09:51:34;6.30;;;5.70;;
15049;SDS011;7622;42.724;23.250;2022-07-04T09:54:13;7.40;;;5.00;;
15049;SDS011;7622;42.724;23.250;2022-07-04T09:56:42;5.05;;;4.68;;
15049;SDS011;7622;42.724;23.250;2022-07-04T09:59:10;6.25;;;4.43;;
15049;SDS011;7622;42.724;23.250;2022-07-04T10:01:36;6.00;;;5.32;;
15049;SDS011;7622;42.724;23.250;2022-07-04T10:04:04;5.47;;;4.88;;
15049;SDS011;7622;42.724;23.250;2022-07-04T10:06:31;5.50;;;5.00;;
15049;SDS011;7622;42.724;23.250;2022-07-04T10:09:05;5.72;;;5.22;;
15049;SDS011;7622;42.724;23.250;2022-07-04T10:11:34;7.15;;;5.43;;
15049;SDS011;7622;42.724;23.250;2022-07-04T10:14:04;9.18;;;5.32;;
15049;SDS011;7622;42.724;23.250;2022-07-04T10:16:33;6.63;;;6.22;;
15049;SDS011;7622;42.724;23.250;2022-07-04T10:19:00;5.85;;;5.10;;
15049;SDS011;7622;42.724;23.250;2022-07-04T10:21:27;5.60;;;5.20;;
15049;SDS011;7622;42.724;23.250;2022-07-04T10:23:55;5.68;;;5.38;;
15049;SDS011;7622;42.724;23.250;2022-07-04T10:26:22;8.40;;;5.68;;
15049;SDS011;7622;42.724;23.250;2022-07-04T10:28:49;5.63;;;5.13;;
15049;SDS011;7622;42.724;23.250;2022-07-04T10:31:18;5.60;;;4.82;;
15049;SDS011;7622;42.724;23.250;2022-07-04T10:33:46;6.57;;;5.47;;
15049;SDS011;7622;42.724;23.250;2022-07-04T10:36:14;7.25;;;5.80;;
15049;SDS011;7622;42.724;23.250;2022-07-04T10:38:48;6.55;;;5.95;;
15049;SDS011;7622;42.724;23.250;2022-07-04T10:41:17;5.65;;;5.25;;
15049;SDS011;7622;42.724;23.250;2022-07-04T10:43:55;6.22;;;5.65;;
15049;SDS011;7622;42.724;23.250;2022-07-04T10:46:28;5.78;;;5.35;;
15049;SDS011;7622;42.724;23.250;2022-07-04T10:49:03;7.15;;;5.38;;
15049;SDS011;7622;42.724;23.250;2022-07-04T10:51:38;6.07;;;5.55;;
15049;SDS011;7622;42.724;23.250;2022-07-04T10:54:08;6.25;;;5.70;;
15049;SDS011;7622;42.724;23.250;2022-07-04T10:56:38;6.07;;;5.68;;
15049;SDS011;7622;42.724;23.250;2022-07-04T10:59:07;6.40;;;5.90;;
15049;SDS011;7622;42.724;23.250;2022-07-04T11:01:37;5.47;;;5.18;;
15049;SDS011;7622;42.724;23.250;2022-07-04T11:04:04;7.93;;;5.82;;
15049;SDS011;7622;42.724;23.250;2022-07-04T11:09:17;7.43;;;5.80;;
15049;SDS011;7622;42.724;23.250;2022-07-04T11:11:54;5.68;;;5.15;;
15049;SDS011;7622;42.724;23.250;2022-07-04T11:14:32;6.55;;;6.13;;
15049;SDS011;7622;42.724;23.250;2022-07-04T11:17:02;5.72;;;5.32;;
15049;SDS011;7622;42.724;23.250;2022-07-04T11:19:29;6.63;;;5.60;;
15049;SDS011;7622;42.724;23.250;2022-07-04T11:21:56;10.20;;;5.50;;
15049;SDS011;7622;42.724;23.250;2022-07-04T11:24:24;6.10;;;5.45;;
15049;SDS011;7622;42.724;23.250;2022-07-04T11:26:52;6.43;;;5.82;;
15049;SDS011;7622;42.724;23.250;2022-07-04T11:29:19;6.75;;;5.90;;
15049;SDS011;7622;42.724;23.250;2022-07-04T11:31:46;6.65;;;6.05;;
15049;SDS011;7622;42.724;23.250;2022-07-04T11:34:15;6.25;;;5.85;;
15049;SDS011;7622;42.724;23.250;2022-07-04T11:36:42;7.30;;;5.80;;
15049;SDS011;7622;42.724;23.250;2022-07-04T11:39:11;6.70;;;6.00;;
15049;SDS011;7622;42.724;23.250;2022-07-04T11:41:39;7.00;;;6.43;;
15049;SDS011;7622;42.724;23.250;2022-07-04T11:44:25;6.32;;;5.85;;
15049;SDS011;7622;42.724;23.250;2022-07-04T11:47:10;6.40;;;5.93;;
15049;SDS011;7622;42.724;23.250;2022-07-04T11:49:45;6.28;;;5.88;;
15049;SDS011;7622;42.724;23.250;2022-07-04T11:52:15;5.85;;;5.35;;
15049;SDS011;7622;42.724;23.250;2022-07-04T11:54:44;6.53;;;6.05;;
15049;SDS011;7622;42.724;23.250;2022-07-04T11:57:13;6.38;;;5.88;;
15049;SDS011;7622;42.724;23.250;2022-07-04T11:59:41;5.90;;;5.43;;
15049;SDS011;7622;42.724;23.250;2022-07-04T12:02:10;6.70;;;6.07;;
15049;SDS011;7622;42.724;23.250;2022-07-04T12:04:38;6.93;;;6.25;;
15049;SDS011;7622;42.724;23.250;2022-07-04T12:07:12;5.88;;;5.32;;
15049;SDS011;7622;42.724;23.250;2022-07-04T12:09:40;13.43;;;6.78;;
15049;SDS011;7622;42.724;23.250;2022-07-04T12:12:08;6.80;;;6.28;;
15049;SDS011;7622;42.724;23.250;2022-07-04T12:14:35;7.28;;;6.28;;
15049;SDS011;7622;42.724;23.250;2022-07-04T12:17:09;6.55;;;5.97;;
15049;SDS011;7622;42.724;23.250;2022-07-04T12:19:50;7.45;;;6.53;;
15049;SDS011;7622;42.724;23.250;2022-07-04T12:22:28;7.03;;;6.32;;
15049;SDS011;7622;42.724;23.250;2022-07-04T12:25:00;6.88;;;6.28;;
15049;SDS011;7622;42.724;23.250;2022-07-04T12:27:28;6.70;;;6.13;;
15049;SDS011;7622;42.724;23.250;2022-07-04T12:29:56;7.32;;;6.35;;
15049;SDS011;7622;42.724;23.250;2022-07-04T12:35:10;6.93;;;6.30;;
15049;SDS011;7622;42.724;23.250;2022-07-04T12:38:01;9.55;;;5.82;;
15049;SDS011;7622;42.724;23.250;2022-07-04T12:40:28;6.32;;;5.72;;
15049;SDS011;7622;42.724;23.250;2022-07-04T12:42:55;7.13;;;6.30;;
15049;SDS011;7622;42.724;23.250;2022-07-04T12:45:22;7.05;;;6.53;;
15049;SDS011;7622;42.724;23.250;2022-07-04T12:47:49;7.07;;;6.13;;
15049;SDS011;7622;42.724;23.250;2022-07-04T12:50:24;7.20;;;6.75;;
15049;SDS011;7622;42.724;23.250;2022-07-04T12:52:51;8.00;;;6.53;;
15049;SDS011;7622;42.724;23.250;2022-07-04T12:55:19;7.25;;;6.30;;
15049;SDS011;7622;42.724;23.250;2022-07-04T12:57:46;7.78;;;6.43;;
15049;SDS011;7622;42.724;23.250;2022-07-04T13:00:13;29.73;;;7.50;;
15049;SDS011;7622;42.724;23.250;2022-07-04T13:02:40;18.20;;;6.90;;
15049;SDS011;7622;42.724;23.250;2022-07-04T13:05:07;8.90;;;6.43;;
15049;SDS011;7622;42.724;23.250;2022-07-04T13:07:34;8.52;;;6.32;;
15049;SDS011;7622;42.724;23.250;2022-07-04T13:10:01;7.38;;;6.07;;
15049;SDS011;7622;42.724;23.250;2022-07-04T13:12:29;7.07;;;6.65;;
15049;SDS011;7622;42.724;23.250;2022-07-04T13:14:56;7.47;;;6.90;;
15049;SDS011;7622;42.724;23.250;2022-07-04T13:17:24;8.40;;;7.20;;
15049;SDS011;7622;42.724;23.250;2022-07-04T13:19:52;6.72;;;6.13;;
15049;SDS011;7622;42.724;23.250;2022-07-04T13:22:20;9.93;;;6.78;;
15049;SDS011;7622;42.724;23.250;2022-07-04T13:24:47;7.35;;;6.75;;
15049;SDS011;7622;42.724;23.250;2022-07-04T13:27:14;7.35;;;6.57;;
15049;SDS011;7622;42.724;23.250;2022-07-04T13:29:43;7.10;;;6.47;;
15049;SDS011;7622;42.724;23.250;2022-07-04T13:32:10;7.72;;;6.93;;
15049;SDS011;7622;42.724;23.250;2022-07-04T13:34:37;6.28;;;5.97;;
15049;SDS011;7622;42.724;23.250;2022-07-04T13:37:04;9.07;;;6.30;;
15049;SDS011;7622;42.724;23.250;2022-07-04T13:39:31;6.97;;;6.30;;
15049;SDS011;7622;42.724;23.250;2022-07-04T13:41:58;6.53;;;6.20;;
15049;SDS011;7622;42.724;23.250;2022-07-04T13:44:26;7.28;;;6.88;;
15049;SDS011;7622;42.724;23.250;2022-07-04T13:46:54;8.07;;;7.35;;
15049;SDS011;7622;42.724;23.250;2022-07-04T13:49:23;9.05;;;7.72;;
15049;SDS011;7622;42.724;23.250;2022-07-04T13:51:50;6.22;;;5.82;;
15049;SDS011;7622;42.724;23.250;2022-07-04T13:54:17;7.03;;;6.38;;
15049;SDS011;7622;42.724;23.250;2022-07-04T13:56:43;7.80;;;6.90;;
15049;SDS011;7622;42.724;23.250;2022-07-04T13:59:11;6.25;;;5.75;;
15049;SDS011;7622;42.724;23.250;2022-07-04T14:01:38;8.07;;;6.43;;
15049;SDS011;7622;42.724;23.250;2022-07-04T14:04:06;6.97;;;6.57;;
15049;SDS011;7622;42.724;23.250;2022-07-04T14:06:33;7.03;;;6.53;;
15049;SDS011;7622;42.724;23.250;2022-07-04T14:09:00;6.45;;;5.90;;
15049;SDS011;7622;42.724;23.250;2022-07-04T14:11:26;8.07;;;7.45;;
15049;SDS011;7622;42.724;23.250;2022-07-04T14:13:53;7.25;;;6.40;;
15049;SDS011;7622;42.724;23.250;2022-07-04T14:16:20;8.35;;;6.63;;
15049;SDS011;7622;42.724;23.250;2022-07-04T14:18:47;7.65;;;6.85;;
15049;SDS011;7622;42.724;23.250;2022-07-04T14:21:15;7.45;;;6.78;;
15049;SDS011;7622;42.724;23.250;2022-07-04T14:23:42;8.05;;;6.50;;
15049;SDS011;7622;42.724;23.250;2022-07-04T14:26:11;7.40;;;6.68;;
15049;SDS011;7622;42.724;23.250;2022-07-04T14:28:39;7.10;;;6.40;;
15049;SDS011;7622;42.724;23.250;2022-07-04T14:31:06;8.20;;;7.30;;
15049;SDS011;7622;42.724;23.250;2022-07-04T14:33:33;8.23;;;7.50;;
15049;SDS011;7622;42.724;23.250;2022-07-04T14:36:00;10.85;;;6.93;;
15049;SDS011;7622;42.724;23.250;2022-07-04T14:38:29;7.13;;;6.40;;
15049;SDS011;7622;42.724;23.250;2022-07-04T14:40:56;7.38;;;6.72;;
15049;SDS011;7622;42.724;23.250;2022-07-04T14:43:35;8.18;;;7.47;;
15049;SDS011;7622;42.724;23.250;2022-07-04T14:46:03;10.15;;;7.13;;
15049;SDS011;7622;42.724;23.250;2022-07-04T14:48:30;9.77;;;8.88;;
15049;SDS011;7622;42.724;23.250;2022-07-04T14:50:56;9.25;;;7.35;;
15049;SDS011;7622;42.724;23.250;2022-07-04T14:53:23;7.63;;;6.93;;
15049;SDS011;7622;42.724;23.250;2022-07-04T14:55:52;11.38;;;7.30;;
15049;SDS011;7622;42.724;23.250;2022-07-04T14:58:18;7.63;;;6.95;;